createdAt,value
2019-05-14T00:01:18.263Z,1.10
2019-05-14T00:06:22.642Z,0.88
2019-05-14T00:11:26.703Z,1.02
2019-05-14T00:16:31.551Z,0.80
2019-05-14T00:21:35.996Z,1.17
2019-05-14T00:26:42.293Z,0.88
2019-05-14T00:31:45.923Z,0.85
2019-05-14T00:36:52.240Z,1.00
2019-05-14T00:41:55.893Z,0.72
2019-05-14T00:47:02.100Z,0.80
2019-05-14T00:52:05.898Z,1.10
2019-05-14T00:57:11.855Z,1.20
2019-05-14T01:02:15.971Z,1.07
2019-05-14T01:07:21.182Z,0.90
2019-05-14T01:12:25.621Z,1.17
2019-05-14T01:17:31.480Z,1.32
2019-05-14T01:22:35.387Z,1.40
2019-05-14T01:27:41.401Z,1.52
2019-05-14T01:32:45.564Z,1.50
2019-05-14T01:37:51.983Z,1.37
2019-05-14T01:42:55.794Z,1.27
2019-05-14T01:48:01.261Z,1.35
2019-05-14T01:53:05.431Z,1.77
2019-05-14T01:58:11.351Z,1.47
2019-05-14T02:03:15.179Z,1.60
2019-05-14T02:08:21.278Z,1.60
2019-05-14T02:13:25.245Z,1.70
2019-05-14T02:18:31.167Z,1.90
2019-05-14T02:23:34.953Z,1.62
2019-05-14T02:28:38.875Z,1.70
2019-05-14T02:33:43.245Z,1.30
2019-05-14T02:43:52.747Z,1.47
2019-05-14T02:48:59.462Z,1.95
2019-05-14T02:54:02.816Z,1.57
2019-05-14T02:59:09.704Z,2.05
2019-05-14T03:04:13.454Z,1.52
2019-05-14T03:09:20.377Z,1.57
2019-05-14T03:14:23.587Z,1.85
2019-05-14T03:19:29.748Z,1.90
2019-05-14T03:24:34.070Z,1.77
2019-05-14T03:29:39.819Z,1.47
2019-05-14T03:34:44.148Z,1.47
2019-05-14T03:39:49.343Z,1.75
2019-05-14T03:44:54.154Z,1.98
2019-05-14T03:55:04.797Z,1.57
2019-05-14T04:00:10.452Z,1.80
2019-05-14T04:05:18.615Z,2.62
2019-05-14T04:10:21.246Z,2.05
2019-05-14T04:15:29.900Z,1.70
2019-05-14T04:20:35.185Z,2.37
2019-05-14T04:25:41.492Z,2.10
2019-05-14T04:30:49.065Z,1.70
2019-05-14T04:35:52.128Z,2.30
2019-05-14T04:41:03.319Z,1.87
2019-05-14T04:46:10.498Z,2.65
2019-05-14T04:51:13.518Z,3.40
2019-05-14T04:56:19.548Z,3.37
2019-05-14T05:01:24.246Z,3.05
2019-05-14T05:06:29.316Z,3.40
2019-05-14T05:11:33.603Z,3.42
2019-05-14T05:16:39.061Z,3.60
2019-05-14T05:21:43.610Z,4.10
2019-05-14T05:26:48.555Z,4.10
2019-05-14T05:31:52.908Z,4.78
2019-05-14T05:36:59.127Z,4.03
2019-05-14T05:42:02.683Z,3.40
2019-05-14T05:47:08.966Z,3.35
2019-05-14T05:52:12.572Z,4.58
2019-05-14T05:57:18.722Z,3.80
2019-05-14T06:02:22.462Z,3.33
2019-05-14T06:07:28.699Z,3.63
2019-05-14T06:12:32.199Z,4.00
2019-05-14T06:17:38.853Z,3.85
2019-05-14T06:22:42.702Z,4.08
2019-05-14T06:27:48.586Z,4.15
2019-05-14T06:32:53.074Z,3.92
2019-05-14T06:43:02.478Z,4.60
2019-05-14T06:48:08.723Z,3.98
2019-05-14T06:53:13.156Z,3.72
2019-05-14T06:58:20.553Z,4.10
2019-05-14T07:03:28.118Z,3.98
2019-05-14T07:08:32.686Z,3.58
2019-05-14T07:13:38.532Z,3.87
2019-05-14T07:18:50.696Z,4.35
2019-05-14T07:23:49.277Z,4.97
2019-05-14T07:33:58.599Z,3.95
2019-05-14T07:39:09.556Z,3.90
2019-05-14T07:44:14.219Z,4.03
2019-05-14T07:49:41.928Z,4.05
2019-05-14T07:54:48.179Z,4.92
2019-05-14T07:59:58.672Z,3.85
2019-05-14T08:05:04.832Z,4.08
2019-05-14T08:10:11.605Z,4.50
2019-05-14T08:15:19.975Z,3.75
2019-05-14T08:20:22.386Z,3.83
2019-05-14T08:25:28.335Z,3.95
2019-05-14T08:30:32.448Z,4.75
2019-05-14T08:35:39.272Z,3.70
2019-05-14T08:40:43.396Z,3.62
2019-05-14T08:45:49.913Z,4.08
2019-05-14T08:50:58.747Z,3.95
2019-05-14T08:56:02.770Z,3.67
2019-05-14T09:01:10.742Z,3.37
2019-05-14T09:06:18.648Z,3.37
2019-05-14T09:11:35.789Z,3.08
2019-05-14T09:16:59.828Z,3.50
2019-05-14T09:22:28.921Z,3.58
2019-05-14T09:27:33.261Z,2.37
2019-05-14T09:32:38.836Z,2.58
2019-05-14T09:38:02.253Z,1.92
2019-05-14T09:43:03.883Z,2.75
2019-05-14T09:48:09.875Z,1.82
2019-05-14T09:53:22.128Z,1.90
2019-05-14T09:58:29.963Z,0.98
2019-05-14T10:03:39.161Z,1.50
2019-05-14T10:08:44.699Z,1.15
2019-05-14T10:13:52.897Z,1.20
2019-05-14T10:18:57.177Z,1.30
2019-05-14T10:24:03.784Z,1.30
2019-05-14T10:29:09.476Z,1.22
2019-05-14T10:34:14.075Z,0.95
2019-05-14T10:39:22.698Z,1.22
2019-05-14T10:44:29.201Z,1.02
2019-05-14T10:49:33.722Z,0.88
2019-05-14T10:54:54.971Z,1.17
2019-05-14T10:59:49.734Z,1.02
2019-05-14T11:04:54.267Z,1.30
2019-05-14T11:10:02.766Z,0.75
2019-05-14T11:15:08.890Z,1.60
2019-05-14T11:20:13.993Z,1.50
2019-05-14T11:25:19.587Z,0.93
2019-05-14T11:30:28.597Z,1.00
2019-05-14T11:35:40.309Z,1.20
2019-05-14T11:40:44.951Z,1.10
2019-05-14T11:50:54.451Z,0.90
2019-05-14T11:56:02.136Z,0.85
2019-05-14T12:01:09.010Z,1.00
2019-05-14T12:06:12.577Z,1.00
2019-05-14T12:11:19.278Z,1.20
2019-05-14T12:16:22.741Z,1.10
2019-05-14T12:21:28.882Z,1.50
2019-05-14T12:26:38.342Z,0.95
2019-05-14T12:31:41.933Z,0.90
2019-05-14T12:36:46.019Z,1.10
2019-05-14T12:41:50.465Z,0.85
2019-05-14T12:46:58.623Z,0.80
2019-05-14T12:52:17.866Z,0.90
2019-05-14T12:57:10.010Z,0.57
2019-05-14T13:02:40.026Z,0.70
2019-05-14T13:07:23.650Z,0.88
2019-05-14T13:12:32.071Z,0.70
2019-05-14T13:17:38.596Z,0.80
2019-05-14T13:22:46.238Z,0.95
2019-05-14T13:27:48.206Z,1.55
2019-05-14T13:32:55.983Z,0.90
2019-05-14T13:38:03.798Z,0.88
2019-05-14T13:43:09.853Z,1.07
2019-05-14T13:48:18.641Z,0.62
2019-05-14T13:53:23.760Z,0.78
2019-05-14T13:58:39.438Z,0.72
2019-05-14T14:03:52.246Z,1.00
2019-05-14T14:08:52.439Z,0.90
2019-05-14T14:13:58.480Z,1.00
2019-05-14T14:19:03.729Z,1.15
2019-05-14T14:24:09.622Z,0.98
2019-05-14T14:29:18.677Z,0.70
2019-05-14T14:34:28.995Z,0.90
2019-05-14T14:39:34.980Z,0.80
2019-05-14T14:44:49.720Z,0.90
2019-05-14T14:50:00.350Z,0.82
2019-05-14T14:55:04.187Z,1.10
2019-05-14T15:00:11.508Z,0.82
2019-05-14T15:10:48.479Z,0.93
2019-05-14T15:15:53.748Z,0.72
2019-05-14T15:21:24.222Z,0.90
2019-05-14T15:26:29.808Z,0.70
2019-05-14T15:31:38.744Z,0.80
2019-05-14T15:36:44.049Z,0.50
2019-05-14T15:41:50.539Z,0.72
2019-05-14T15:47:04.774Z,0.80
2019-05-14T15:52:15.678Z,0.80
2019-05-14T15:57:31.059Z,1.10
2019-05-14T16:02:38.627Z,0.82
2019-05-14T16:07:42.288Z,0.80
2019-05-14T16:12:50.804Z,0.88
2019-05-14T16:18:07.578Z,0.90
2019-05-14T16:23:02.447Z,0.90
2019-05-14T16:28:08.745Z,0.60
2019-05-14T16:33:18.565Z,0.82
2019-05-14T16:38:23.322Z,0.80
2019-05-14T16:43:32.041Z,0.70
2019-05-14T16:48:34.448Z,0.70
2019-05-14T16:58:42.366Z,0.70
2019-05-14T17:03:49.196Z,0.93
2019-05-14T17:08:53.653Z,1.02
2019-05-14T17:13:58.197Z,0.55
2019-05-14T17:19:02.508Z,0.78
2019-05-14T17:24:08.605Z,1.00
2019-05-14T17:29:12.667Z,0.70
2019-05-14T17:34:18.626Z,0.70
2019-05-14T17:39:30.386Z,0.72
2019-05-14T17:44:34.506Z,0.68
2019-05-14T17:49:39.142Z,0.70
2019-05-14T17:54:43.914Z,0.65
2019-05-14T17:59:49.613Z,0.68
2019-05-14T18:04:56.354Z,0.85
2019-05-14T18:09:59.880Z,0.60
2019-05-14T18:15:04.160Z,0.85
2019-05-14T18:20:09.399Z,0.82
2019-05-14T18:25:13.482Z,1.10
2019-05-14T18:30:18.374Z,1.50
2019-05-14T18:35:23.279Z,1.20
2019-05-14T18:40:28.129Z,1.10
2019-05-14T18:45:32.252Z,0.80
2019-05-14T18:50:36.579Z,0.90
2019-05-14T18:55:40.701Z,0.75
2019-05-14T19:00:44.944Z,0.50
2019-05-14T19:05:52.260Z,0.93
2019-05-14T19:10:59.152Z,0.90
2019-05-14T19:16:02.597Z,1.20
2019-05-14T19:21:08.758Z,0.70
2019-05-14T19:26:12.812Z,0.80
2019-05-14T19:31:20.006Z,0.90
2019-05-14T19:36:25.196Z,1.00
2019-05-14T19:41:29.526Z,0.78
2019-05-14T19:46:33.619Z,0.90
2019-05-14T19:51:38.712Z,1.00
2019-05-14T19:56:53.283Z,0.90
2019-05-14T20:01:51.245Z,1.02
2019-05-14T20:06:55.329Z,0.78
2019-05-14T20:11:59.763Z,0.90
2019-05-14T20:17:03.813Z,0.80
2019-05-14T20:22:07.878Z,1.10
2019-05-14T20:27:12.507Z,0.80
2019-05-14T20:32:19.183Z,0.90
2019-05-14T20:37:22.494Z,1.00
2019-05-14T20:42:29.051Z,0.65
2019-05-14T20:47:33.505Z,0.75
2019-05-14T20:52:37.615Z,0.80
2019-05-14T20:57:41.573Z,0.85
2019-05-14T21:02:45.694Z,1.00
2019-05-14T21:07:49.806Z,0.93
2019-05-14T21:12:54.141Z,0.75
2019-05-14T21:17:59.534Z,1.22
2019-05-14T21:23:04.285Z,0.90
2019-05-14T21:28:09.295Z,1.05
2019-05-14T21:33:13.426Z,0.98
2019-05-14T21:38:19.134Z,1.27
2019-05-14T21:43:23.861Z,1.00
2019-05-14T21:48:28.882Z,1.40
2019-05-14T21:53:33.445Z,1.05
2019-05-14T21:58:38.691Z,1.00
2019-05-14T22:03:43.572Z,1.20
2019-05-14T22:13:53.062Z,1.42
2019-05-14T22:18:59.225Z,1.32
2019-05-14T22:24:03.089Z,1.17
2019-05-14T22:29:08.284Z,1.40
2019-05-14T22:34:14.620Z,1.35
2019-05-14T22:39:20.050Z,1.25
2019-05-14T22:44:24.545Z,1.12
2019-05-14T22:49:28.621Z,1.52
2019-05-14T22:54:33.026Z,1.20
2019-05-14T22:59:39.213Z,1.25
2019-05-14T23:04:43.428Z,1.57
2019-05-14T23:09:48.225Z,1.12
2019-05-14T23:14:52.391Z,1.02
2019-05-14T23:19:58.061Z,1.40
2019-05-14T23:25:02.379Z,1.20
2019-05-14T23:30:09.077Z,1.25
2019-05-14T23:35:15.410Z,1.25
2019-05-14T23:40:20.459Z,1.40
2019-05-14T23:45:24.540Z,1.52
2019-05-14T23:50:29.008Z,1.30
2019-05-14T23:55:33.628Z,1.50
